createdAt,value
2023-03-23T15:59:19.208Z,99980.75
2023-03-23T16:02:06.630Z,99981.84
2023-03-23T16:04:52.760Z,99971.09
2023-03-23T16:07:39.099Z,99972.00
2023-03-23T16:10:25.519Z,99964.38
2023-03-23T16:13:11.562Z,99972.63
2023-03-23T16:15:57.312Z,99977.31
2023-03-23T16:18:44.372Z,99974.44
2023-03-23T16:21:30.072Z,99968.47
2023-03-23T16:24:15.974Z,99966.53
2023-03-23T16:27:01.720Z,99978.19
2023-03-23T16:30:02.899Z,99967.53
2023-03-23T16:32:50.355Z,99967.03
2023-03-23T16:35:39.027Z,99965.56
2023-03-23T16:38:25.281Z,99963.47
2023-03-23T16:41:11.253Z,99966.31
2023-03-23T16:43:57.056Z,99964.00
2023-03-23T16:46:43.225Z,99961.53
2023-03-23T16:49:28.988Z,99958.53
2023-03-23T16:52:16.118Z,99962.56
2023-03-23T16:55:01.928Z,99970.09
2023-03-23T16:57:47.711Z,99964.50
2023-03-23T17:00:33.764Z,99973.34
2023-03-23T17:03:20.140Z,99977.34
2023-03-23T17:06:06.608Z,99986.34
2023-03-23T17:08:54.077Z,99990.34
2023-03-23T17:11:40.388Z,100001.34
2023-03-23T17:14:26.444Z,100009.50
2023-03-23T17:17:12.306Z,100010.19
2023-03-23T17:19:58.343Z,100020.53
2023-03-23T17:22:44.393Z,100034.19
2023-03-23T17:25:31.883Z,100028.88
2023-03-23T17:28:19.694Z,100049.69
2023-03-23T17:31:07.367Z,100053.66
2023-03-23T17:33:53.626Z,100068.13
2023-03-23T17:36:39.321Z,100070.13
2023-03-23T17:39:25.080Z,100080.75
2023-03-23T17:42:12.223Z,100078.28
2023-03-23T17:44:58.702Z,100091.75
2023-03-23T17:47:44.295Z,100096.59
2023-03-23T17:50:30.258Z,100095.94
2023-03-23T17:53:18.399Z,100097.94
2023-03-23T17:56:04.688Z,100108.09
2023-03-23T17:58:51.928Z,100104.09
2023-03-23T18:01:37.591Z,100115.72
2023-03-23T18:04:23.719Z,100135.69
2023-03-23T18:07:09.790Z,100136.03
2023-03-23T18:09:58.319Z,100145.38
2023-03-23T18:12:44.120Z,100151.19
2023-03-23T18:15:33.372Z,100164.13
2023-03-23T18:18:19.235Z,100171.81
2023-03-23T18:21:07.473Z,100178.63
2023-03-23T18:23:59.183Z,100181.94
2023-03-23T18:26:46.069Z,100201.53
2023-03-23T18:29:31.923Z,100206.53
2023-03-23T18:32:19.664Z,100212.47
2023-03-23T18:35:06.360Z,100219.97
2023-03-23T18:37:52.601Z,100227.94
2023-03-23T18:40:42.846Z,100226.94
2023-03-23T18:43:28.860Z,100235.56
2023-03-23T18:46:14.893Z,100241.72
2023-03-23T18:49:02.086Z,100241.72
2023-03-23T18:51:47.976Z,100240.72
2023-03-23T18:54:34.935Z,100243.03
2023-03-23T18:57:22.438Z,100248.06
2023-03-23T19:00:08.938Z,100251.84
2023-03-23T19:02:54.878Z,100255.31
2023-03-23T19:05:44.401Z,100259.97
2023-03-23T19:08:30.551Z,100262.47
2023-03-23T19:11:16.868Z,100257.53
2023-03-23T19:14:03.570Z,100254.53
2023-03-23T19:16:49.670Z,100266.66
2023-03-23T19:19:35.819Z,100264.81
2023-03-23T19:22:23.353Z,100261.66
2023-03-23T19:25:10.057Z,100258.69
2023-03-23T19:30:45.717Z,100251.56
2023-03-23T19:33:31.723Z,100260.38
2023-03-23T19:36:18.639Z,100263.69
2023-03-23T19:39:06.397Z,100250.06
2023-03-23T19:41:52.405Z,100253.72
2023-03-23T19:44:38.314Z,100255.03
2023-03-23T19:47:24.091Z,100251.38
2023-03-23T19:50:10.190Z,100261.03
2023-03-23T19:52:58.650Z,100253.03
2023-03-23T19:55:47.997Z,100238.94
2023-03-23T19:58:34.602Z,100230.13
2023-03-23T20:01:21.067Z,100222.31
2023-03-23T20:04:07.162Z,100214.66
2023-03-23T20:06:53.978Z,100207.50
2023-03-23T20:09:39.717Z,100205.69
2023-03-23T20:12:27.144Z,100199.88
2023-03-23T20:15:13.053Z,100193.25
2023-03-23T20:17:58.764Z,100196.53
2023-03-23T20:20:44.896Z,100198.69
2023-03-23T20:23:30.783Z,100195.38
2023-03-23T20:26:17.771Z,100200.69
2023-03-23T20:29:04.979Z,100204.69
2023-03-23T20:31:52.098Z,100210.81
2023-03-23T20:34:37.911Z,100214.66
2023-03-23T20:37:24.504Z,100215.94
2023-03-23T20:40:11.768Z,100220.75
2023-03-23T20:42:57.726Z,100207.47
2023-03-23T20:45:45.072Z,100202.47
2023-03-23T20:48:31.971Z,100197.16
2023-03-23T20:51:18.146Z,100201.31
2023-03-23T20:54:05.735Z,100186.72
2023-03-23T20:56:52.843Z,100180.91
2023-03-23T20:59:40.409Z,100169.78
2023-03-23T21:02:29.568Z,100171.28
2023-03-23T21:05:16.189Z,100162.00
2023-03-23T21:08:02.296Z,100143.06
2023-03-23T21:10:48.246Z,100129.97
2023-03-23T21:13:34.237Z,100117.34
2023-03-23T21:16:20.247Z,100104.38
2023-03-23T21:19:07.607Z,100081.31
2023-03-23T21:21:55.997Z,100072.81
2023-03-23T21:24:42.849Z,100059.06
2023-03-23T21:27:28.922Z,100044.09
2023-03-23T21:30:14.808Z,100029.66
2023-03-23T21:33:00.719Z,100013.53
2023-03-23T21:35:48.015Z,100000.91
2023-03-23T21:38:34.040Z,99979.81
2023-03-23T21:41:20.434Z,99969.38
2023-03-23T21:44:10.398Z,99956.91
2023-03-23T21:46:56.159Z,99948.13
2023-03-23T21:49:41.927Z,99927.34
2023-03-23T21:52:29.218Z,99917.19
2023-03-23T21:55:15.237Z,99900.25
2023-03-23T21:58:01.307Z,99890.31
2023-03-23T22:00:49.763Z,99888.13
2023-03-23T22:03:36.153Z,99872.84
2023-03-23T22:06:26.086Z,99876.97
2023-03-23T22:09:13.738Z,99864.34
2023-03-23T22:11:59.616Z,99856.53
2023-03-23T22:14:45.711Z,99846.03
2023-03-23T22:17:32.887Z,99840.72
2023-03-23T22:20:20.809Z,99834.56
2023-03-23T22:23:07.082Z,99825.41
2023-03-23T22:25:54.320Z,99818.44
2023-03-23T22:28:40.512Z,99812.13
2023-03-23T22:31:27.348Z,99804.47
2023-03-23T22:34:13.449Z,99807.78
2023-03-23T22:36:59.161Z,99796.78
2023-03-23T22:39:45.229Z,99798.44
2023-03-23T22:42:32.527Z,99790.28
2023-03-23T22:45:18.433Z,99793.78
2023-03-23T22:48:06.711Z,99778.47
2023-03-23T22:50:52.933Z,99772.16
2023-03-23T22:53:38.606Z,99761.00
2023-03-23T22:56:24.588Z,99752.00
2023-03-23T22:59:12.138Z,99743.69
2023-03-23T23:01:58.101Z,99739.00
2023-03-23T23:04:44.054Z,99747.63
2023-03-23T23:07:30.508Z,99732.13
2023-03-23T23:10:16.854Z,99728.47
2023-03-23T23:13:02.690Z,99716.53
2023-03-23T23:15:51.137Z,99719.00
2023-03-23T23:18:36.981Z,99719.19
2023-03-23T23:21:23.261Z,99714.16
2023-03-23T23:24:09.006Z,99707.19
2023-03-23T23:26:55.021Z,99702.88
2023-03-23T23:29:41.399Z,99705.16
2023-03-23T23:32:29.491Z,99701.03
2023-03-23T23:35:15.606Z,99689.75
2023-03-23T23:38:01.450Z,99697.94
2023-03-23T23:40:48.119Z,99691.59
2023-03-23T23:43:34.483Z,99695.91
2023-03-23T23:46:20.306Z,99697.75
2023-03-23T23:49:07.976Z,99691.59
2023-03-23T23:51:54.285Z,99688.75
2023-03-23T23:54:42.498Z,99686.75
2023-03-23T23:57:28.334Z,99686.75
